Time;durP1;ratioP1;P1;durP2;ratioP2;P2;SDS_P1;SDS_P2;PMS_P1;PMS_P2;Temp;Humidity;BMP_temperature;BMP_pressure;BME280_temperature;BME280_humidity;BME280_pressure;Samples;Min_cycle;Max_cycle;Signal;HPM_P1;HPM_P2
2023/04/04 00:00:26;;;;;;;8.30;7.22;;;21.40;70.00;;;;;;6204568;28;89687;-72
2023/04/04 00:03:28;;;;;;;9.27;8.15;;;21.40;70.00;;;;;;6186458;28;89745;-72
2023/04/04 00:06:32;;;;;;;8.50;7.47;;;21.40;70.00;;;;;;6194825;28;88090;-72
2023/04/04 00:09:34;;;;;;;10.35;8.23;;;21.40;70.00;;;;;;6196943;28;89109;-72
2023/04/04 00:12:37;;;;;;;8.48;7.55;;;21.40;70.00;;;;;;6206211;28;88271;-72
2023/04/04 00:15:39;;;;;;;8.68;7.53;;;21.40;70.00;;;;;;6203656;28;88323;-72
2023/04/04 00:18:41;;;;;;;9.60;7.78;;;21.40;70.00;;;;;;6193882;28;89175;-72
2023/04/04 00:21:45;;;;;;;8.45;7.55;;;21.40;70.00;;;;;;6186284;28;88369;-72
2023/04/04 00:24:47;;;;;;;8.70;7.32;;;21.40;70.00;;;;;;6194882;28;89115;-72
2023/04/04 00:27:50;;;;;;;9.48;7.80;;;21.40;70.00;;;;;;6181724;28;88905;-71
2023/04/04 00:30:52;;;;;;;8.88;7.53;;;21.40;70.00;;;;;;6191911;28;90078;-71
2023/04/04 00:33:54;;;;;;;9.05;7.88;;;21.40;70.00;;;;;;6196905;28;90185;-72
2023/04/04 00:36:58;;;;;;;9.23;8.05;;;21.40;70.10;;;;;;6191538;28;88249;-72
2023/04/04 00:40:00;;;;;;;10.32;8.60;;;21.30;70.00;;;;;;6193757;28;89334;-72
2023/04/04 00:43:02;;;;;;;8.73;7.70;;;21.30;69.90;;;;;;6206262;28;89164;-72
2023/04/04 00:46:04;;;;;;;8.85;7.93;;;21.30;69.90;;;;;;6182280;28;89054;-72
2023/04/04 00:49:06;;;;;;;9.20;8.20;;;21.30;69.90;;;;;;6195368;28;87954;-72
2023/04/04 00:52:10;;;;;;;9.10;8.20;;;21.30;69.90;;;;;;6192707;28;88916;-72
2023/04/04 00:55:12;;;;;;;9.05;7.60;;;21.30;69.90;;;;;;6195094;28;88998;-68
2023/04/04 00:58:15;;;;;;;10.82;7.85;;;21.30;69.90;;;;;;6188807;28;89085;-72
2023/04/04 01:01:17;;;;;;;8.77;7.43;;;21.30;69.90;;;;;;6197740;28;90252;-71
2023/04/04 01:04:19;;;;;;;8.90;7.70;;;21.30;68.60;;;;;;6205859;28;89129;-72
2023/04/04 01:07:23;;;;;;;8.75;7.85;;;21.30;68.50;;;;;;6204650;28;89161;-72
2023/04/04 01:10:25;;;;;;;9.57;8.30;;;21.30;68.70;;;;;;6192478;28;87983;-72
2023/04/04 01:13:27;;;;;;;9.57;7.97;;;21.30;68.80;;;;;;6198862;28;87969;-72
2023/04/04 01:16:29;;;;;;;10.30;8.80;;;21.30;68.90;;;;;;6188277;28;89245;-72
2023/04/04 01:19:36;;;;;;;10.73;8.65;;;21.30;69.00;;;;;;6185518;28;88143;-72
2023/04/04 01:22:40;;;;;;;9.55;8.20;;;21.30;69.20;;;;;;6199261;28;88378;-72
2023/04/04 01:25:45;;;;;;;9.90;8.55;;;21.30;69.20;;;;;;6192322;28;87898;-72
2023/04/04 01:28:48;;;;;;;10.75;8.93;;;21.30;69.20;;;;;;6194185;28;89105;-71
2023/04/04 01:31:56;;;;;;;11.60;9.02;;;21.20;69.20;;;;;;6194124;28;89991;-72
2023/04/04 01:35:06;;;;;;;9.98;8.70;;;21.20;69.20;;;;;;6189951;28;89163;-73
2023/04/04 01:38:17;;;;;;;10.45;9.05;;;21.20;69.20;;;;;;6200552;28;89018;-72
2023/04/04 01:41:23;;;;;;;11.13;8.70;;;21.20;69.20;;;;;;6200424;28;89182;-72
2023/04/04 01:44:26;;;;;;;9.57;8.57;;;21.20;69.30;;;;;;6191841;28;87897;-72
2023/04/04 01:47:29;;;;;;;13.05;9.77;;;21.20;69.40;;;;;;6179014;28;89104;-72
2023/04/04 01:50:31;;;;;;;9.82;8.82;;;21.20;69.30;;;;;;6194457;28;88277;-72
2023/04/04 01:53:34;;;;;;;9.55;8.55;;;21.20;69.30;;;;;;6201373;28;88383;-71
2023/04/04 01:56:37;;;;;;;10.23;9.00;;;21.20;69.40;;;;;;6201648;28;89060;-73
2023/04/04 01:59:39;;;;;;;9.95;8.85;;;21.20;69.40;;;;;;6200331;28;89436;-73
2023/04/04 02:02:41;;;;;;;9.73;8.63;;;21.20;69.40;;;;;;6202809;28;90048;-73
2023/04/04 02:05:43;;;;;;;9.32;8.25;;;21.20;69.40;;;;;;6203183;28;89054;-73
2023/04/04 02:08:45;;;;;;;9.27;8.27;;;21.20;69.40;;;;;;6201751;28;89144;-73
2023/04/04 02:11:49;;;;;;;10.27;8.65;;;21.10;69.30;;;;;;6194381;28;88276;-73
2023/04/04 02:14:52;;;;;;;9.43;8.43;;;21.10;69.30;;;;;;6198654;28;89046;-72
2023/04/04 02:17:54;;;;;;;9.63;8.25;;;21.10;69.30;;;;;;6203312;28;89298;-73
2023/04/04 02:20:57;;;;;;;9.98;8.57;;;21.10;69.30;;;;;;6191790;28;89108;-73
2023/04/04 02:23:59;;;;;;;9.13;8.20;;;21.10;69.40;;;;;;6201926;28;88605;-72
2023/04/04 02:27:03;;;;;;;10.18;8.70;;;21.10;69.40;;;;;;6193164;28;89282;-73
2023/04/04 02:30:06;;;;;;;9.52;8.52;;;21.10;69.30;;;;;;6204312;28;88008;-72
2023/04/04 02:33:08;;;;;;;8.88;7.97;;;21.10;69.40;;;;;;6207308;28;88877;-74
2023/04/04 02:36:11;;;;;;;9.32;8.13;;;21.10;69.40;;;;;;6193985;28;88991;-72
2023/04/04 02:39:13;;;;;;;9.88;8.07;;;21.10;69.40;;;;;;6189541;28;88127;-73
2023/04/04 02:42:17;;;;;;;10.07;8.35;;;21.10;69.50;;;;;;6207913;28;89354;-72
2023/04/04 02:45:19;;;;;;;8.98;8.02;;;21.10;69.50;;;;;;6203600;28;89009;-73
2023/04/04 02:48:21;;;;;;;8.73;7.75;;;21.10;69.40;;;;;;6206459;28;89134;-73
2023/04/04 02:51:23;;;;;;;9.73;8.18;;;21.10;69.40;;;;;;6197228;28;89378;-73
2023/04/04 02:54:25;;;;;;;8.60;7.72;;;21.10;69.40;;;;;;6197009;28;87675;-72
2023/04/04 02:57:29;;;;;;;10.27;8.15;;;21.10;69.40;;;;;;6204476;28;89134;-72
2023/04/04 03:00:31;;;;;;;8.57;7.63;;;21.10;69.40;;;;;;6207695;28;88721;-71
2023/04/04 03:03:33;;;;;;;8.55;7.50;;;21.10;69.40;;;;;;6208346;28;90274;-73
2023/04/04 03:06:36;;;;;;;8.68;7.78;;;21.00;69.20;;;;;;6194756;28;89094;-72
2023/04/04 03:09:38;;;;;;;8.10;7.30;;;21.10;69.30;;;;;;6196759;28;89020;-72
2023/04/04 03:12:41;;;;;;;8.10;6.82;;;21.00;69.20;;;;;;6191877;28;89056;-72
2023/04/04 03:15:44;;;;;;;7.88;6.78;;;21.00;69.20;;;;;;6201646;28;89050;-72
2023/04/04 03:18:46;;;;;;;8.48;7.30;;;21.00;69.20;;;;;;6201461;28;89133;-72
2023/04/04 03:21:48;;;;;;;7.97;6.95;;;21.00;69.30;;;;;;6197364;28;87945;-73
2023/04/04 03:24:51;;;;;;;7.60;6.82;;;21.00;69.30;;;;;;6203046;28;88317;-71
2023/04/04 03:27:54;;;;;;;7.70;6.80;;;21.00;69.30;;;;;;6194809;28;89338;-72
2023/04/04 03:30:56;;;;;;;7.60;6.80;;;21.00;69.30;;;;;;6193269;28;89080;-72
2023/04/04 03:33:59;;;;;;;7.65;6.10;;;21.00;69.20;;;;;;6191817;28;90317;-72
2023/04/04 03:37:01;;;;;;;7.53;6.72;;;21.00;69.00;;;;;;6201091;28;88093;-72
2023/04/04 03:40:04;;;;;;;6.90;6.20;;;21.00;69.00;;;;;;6214293;28;89307;-72
2023/04/04 03:43:08;;;;;;;7.22;6.53;;;21.10;69.10;;;;;;6194056;28;89558;-71
2023/04/04 03:46:10;;;;;;;7.30;6.60;;;21.10;68.90;;;;;;6200796;28;88070;-71
2023/04/04 03:49:12;;;;;;;7.30;6.22;;;21.10;68.80;;;;;;6201058;28;89385;-72
2023/04/04 03:52:14;;;;;;;8.05;6.70;;;21.10;68.80;;;;;;6192364;28;89203;-71
2023/04/04 03:55:17;;;;;;;7.45;6.68;;;21.10;68.70;;;;;;6194147;28;88507;-72
2023/04/04 03:58:20;;;;;;;7.03;5.95;;;21.10;68.70;;;;;;6198313;28;89197;-72
2023/04/04 04:01:23;;;;;;;6.35;5.75;;;21.10;68.70;;;;;;6195633;28;88013;-71
2023/04/04 04:04:25;;;;;;;6.47;5.80;;;21.20;69.60;;;;;;6189727;28;90592;-72
2023/04/04 04:07:27;;;;;;;6.43;5.78;;;21.20;68.60;;;;;;6205951;28;89416;-72
2023/04/04 04:10:29;;;;;;;6.60;5.90;;;21.20;68.60;;;;;;6200165;28;87893;-72
2023/04/04 04:13:34;;;;;;;6.82;6.00;;;21.30;68.50;;;;;;6199622;28;89001;-72
2023/04/04 04:16:42;;;;;;;6.45;5.80;;;21.30;68.40;;;;;;6195872;28;89082;-72
2023/04/04 04:19:44;;;;;;;6.60;5.85;;;21.30;68.40;;;;;;6204603;28;87971;-73
2023/04/04 04:22:47;;;;;;;6.55;5.63;;;21.30;68.40;;;;;;6204105;28;89056;-72
2023/04/04 04:25:49;;;;;;;6.55;5.47;;;21.30;68.30;;;;;;6203884;28;88397;-72
2023/04/04 04:28:52;;;;;;;6.53;5.15;;;21.30;68.20;;;;;;6193232;28;89088;-71
2023/04/04 04:31:54;;;;;;;5.57;4.97;;;21.30;68.20;;;;;;6188982;28;89342;-71
2023/04/04 04:34:56;;;;;;;7.65;5.30;;;21.30;68.10;;;;;;6197149;28;90064;-73
2023/04/04 04:37:58;;;;;;;5.32;4.82;;;21.30;68.00;;;;;;6197343;28;89033;-72
2023/04/04 04:41:01;;;;;;;5.78;5.15;;;21.30;67.90;;;;;;6194375;28;89052;-72
2023/04/04 04:44:05;;;;;;;7.20;5.28;;;21.40;67.90;;;;;;6199608;28;87916;-72
2023/04/04 04:47:07;;;;;;;5.55;4.95;;;21.40;67.90;;;;;;6205282;28;89134;-71
2023/04/04 04:50:09;;;;;;;6.00;4.90;;;21.40;67.90;;;;;;6196154;28;89067;-73
2023/04/04 04:53:12;;;;;;;4.90;4.40;;;21.40;67.90;;;;;;6203442;28;91026;-73
2023/04/04 04:56:14;;;;;;;5.00;4.47;;;21.40;67.90;;;;;;6190934;28;87197;-72
2023/04/04 04:59:17;;;;;;;5.53;4.82;;;21.40;67.80;;;;;;6194138;28;89127;-72
2023/04/04 05:02:19;;;;;;;5.28;4.50;;;21.50;67.90;;;;;;6204434;28;89431;-70
2023/04/04 05:05:21;;;;;;;6.75;5.22;;;21.40;67.90;;;;;;6195504;28;90091;-71
2023/04/04 05:08:23;;;;;;;5.57;4.90;;;21.50;70.80;;;;;;6205255;28;88537;-70
2023/04/04 05:11:26;;;;;;;5.90;4.45;;;21.50;70.10;;;;;;6205815;28;89247;-72
2023/04/04 05:14:29;;;;;;;5.90;4.70;;;21.60;70.70;;;;;;6199465;28;87854;-70
2023/04/04 05:17:31;;;;;;;5.90;5.20;;;21.70;69.60;;;;;;6204864;28;89116;-70
2023/04/04 05:20:33;;;;;;;6.10;4.53;;;21.70;68.80;;;;;;6196761;28;89062;-70
2023/04/04 05:23:35;;;;;;;5.60;4.38;;;21.70;68.60;;;;;;6195306;28;89028;-70
2023/04/04 05:26:37;;;;;;;5.45;4.70;;;21.80;68.60;;;;;;6193208;28;87240;-70
2023/04/04 05:29:41;;;;;;;6.57;4.10;;;21.70;68.40;;;;;;6198688;28;89096;-71
2023/04/04 05:32:45;;;;;;;4.45;4.05;;;21.80;69.10;;;;;;6212055;28;90597;-71
2023/04/04 05:35:47;;;;;;;5.78;4.75;;;21.80;68.20;;;;;;6194625;28;89954;-70
2023/04/04 05:38:49;;;;;;;5.22;4.55;;;21.80;68.10;;;;;;6197550;28;89052;-71
2023/04/04 05:41:51;;;;;;;6.00;4.55;;;21.70;68.10;;;;;;6198084;28;89167;-71
2023/04/04 05:44:54;;;;;;;4.53;4.13;;;21.80;68.10;;;;;;6205322;28;89130;-70
2023/04/04 05:47:56;;;;;;;4.82;4.10;;;21.80;68.10;;;;;;6198171;28;89402;-71
2023/04/04 05:50:58;;;;;;;4.28;3.83;;;21.80;68.10;;;;;;6207417;28;88052;-71
2023/04/04 05:54:00;;;;;;;4.65;3.80;;;21.80;68.00;;;;;;6206729;28;89028;-70
2023/04/04 05:57:02;;;;;;;4.95;4.13;;;21.70;68.00;;;;;;6206095;28;87795;-71
2023/04/04 06:00:08;;;;;;;5.45;4.03;;;21.80;68.00;;;;;;6198973;28;89207;-70
2023/04/04 06:03:11;;;;;;;5.50;4.20;;;21.80;67.90;;;;;;6193824;28;89156;-70
2023/04/04 06:06:13;;;;;;;4.25;3.80;;;21.80;68.00;;;;;;6202557;28;90417;-70
2023/04/04 06:09:15;;;;;;;4.72;4.13;;;21.80;68.00;;;;;;6204274;28;89111;-70
2023/04/04 06:12:17;;;;;;;5.90;4.00;;;21.80;67.90;;;;;;6205842;28;89223;-71
2023/04/04 06:15:20;;;;;;;4.47;4.07;;;21.80;68.00;;;;;;6200369;28;89024;-70
2023/04/04 06:18:22;;;;;;;4.07;3.67;;;21.80;68.00;;;;;;6198624;28;89582;-70
2023/04/04 06:21:25;;;;;;;4.38;3.80;;;21.80;68.00;;;;;;6202458;28;89085;-71
2023/04/04 06:24:27;;;;;;;4.72;3.92;;;21.90;68.10;;;;;;6196508;28;88981;-71
2023/04/04 06:27:29;;;;;;;4.80;3.92;;;21.80;68.10;;;;;;6208952;28;88427;-71
2023/04/04 06:30:36;;;;;;;4.07;3.63;;;21.80;68.10;;;;;;6208674;28;89206;-70
2023/04/04 06:33:38;;;;;;;3.95;3.53;;;21.80;68.10;;;;;;6207975;28;89024;-71
2023/04/04 06:36:40;;;;;;;4.72;3.70;;;21.90;68.10;;;;;;6204821;28;89842;-70
2023/04/04 06:39:42;;;;;;;4.25;3.40;;;21.90;68.10;;;;;;6198098;28;89067;-70
2023/04/04 06:42:49;;;;;;;5.13;3.65;;;21.90;68.20;;;;;;6202904;28;89384;-71
2023/04/04 06:45:52;;;;;;;4.18;3.42;;;21.90;68.20;;;;;;6206004;28;89044;-70
2023/04/04 06:48:54;;;;;;;6.45;3.75;;;22.00;68.30;;;;;;6205498;28;87995;-70
2023/04/04 06:51:57;;;;;;;4.10;3.42;;;21.90;68.30;;;;;;6184444;28;87958;-71
2023/04/04 06:54:59;;;;;;;4.28;3.33;;;22.00;68.40;;;;;;6184408;28;90038;-71
2023/04/04 06:58:02;;;;;;;5.28;3.70;;;22.00;68.40;;;;;;6208855;28;88609;-71
2023/04/04 07:01:05;;;;;;;4.53;3.38;;;22.00;68.40;;;;;;6206787;28;89105;-71
2023/04/04 07:04:08;;;;;;;4.57;3.60;;;22.00;68.40;;;;;;6193149;28;89933;-70
2023/04/04 07:07:10;;;;;;;6.13;3.53;;;22.00;68.30;;;;;;6196054;28;90480;-71
2023/04/04 07:10:11;;;;;;;4.90;3.60;;;22.00;68.30;;;;;;6199798;28;88080;-71
2023/04/04 07:13:14;;;;;;;6.82;3.60;;;22.00;68.40;;;;;;6201580;28;89387;-70
2023/04/04 07:16:17;;;;;;;5.35;3.53;;;22.00;68.30;;;;;;6207718;28;89378;-70
2023/04/04 07:19:22;;;;;;;4.07;3.30;;;22.00;68.40;;;;;;6203546;28;89132;-70
2023/04/04 07:22:24;;;;;;;4.15;3.60;;;22.10;68.30;;;;;;6196617;28;89050;-71
2023/04/04 07:25:26;;;;;;;4.63;3.40;;;22.10;68.30;;;;;;6194258;28;89099;-71
2023/04/04 07:28:28;;;;;;;3.78;3.05;;;22.10;68.30;;;;;;6204375;28;87569;-71
2023/04/04 07:31:32;;;;;;;4.57;2.88;;;22.10;68.30;;;;;;6216268;28;89149;-71
2023/04/04 07:34:34;;;;;;;3.90;3.03;;;22.10;68.30;;;;;;6203595;28;88879;-71
2023/04/04 07:37:37;;;;;;;4.35;3.05;;;22.10;68.30;;;;;;6193902;28;90060;-71
2023/04/04 07:40:39;;;;;;;3.83;3.15;;;22.10;68.30;;;;;;6201549;28;88861;-72
2023/04/04 07:43:41;;;;;;;3.65;3.08;;;22.10;68.30;;;;;;6204586;28;89065;-71
2023/04/04 07:46:44;;;;;;;3.58;3.05;;;22.10;68.30;;;;;;6207485;28;89125;-72
2023/04/04 07:49:47;;;;;;;3.40;2.85;;;22.10;68.30;;;;;;6203075;28;89051;-71
2023/04/04 07:52:51;;;;;;;3.78;3.08;;;22.10;68.30;;;;;;6194491;28;89161;-71
2023/04/04 07:55:52;;;;;;;4.18;2.97;;;22.10;68.30;;;;;;6200753;28;89689;-71
2023/04/04 07:58:55;;;;;;;3.83;2.72;;;22.10;68.40;;;;;;6182093;28;88320;-71
2023/04/04 08:01:58;;;;;;;3.50;2.80;;;22.10;68.40;;;;;;6184014;28;89204;-71
2023/04/04 08:05:00;;;;;;;3.30;2.70;;;22.10;68.30;;;;;;6205209;28;89228;-72
2023/04/04 08:08:02;;;;;;;3.45;2.78;;;22.10;68.30;;;;;;6187628;28;89919;-71
2023/04/04 08:11:04;;;;;;;3.33;2.50;;;22.20;68.30;;;;;;6187044;28;89046;-72
2023/04/04 08:14:10;;;;;;;3.33;2.60;;;22.20;68.30;;;;;;6207048;28;89077;-71
2023/04/04 08:17:17;;;;;;;3.08;2.67;;;22.20;68.30;;;;;;6206881;28;89021;-71
2023/04/04 08:20:19;;;;;;;3.42;2.60;;;22.20;68.30;;;;;;6220491;28;89677;-72
2023/04/04 08:23:21;;;;;;;2.75;2.33;;;22.20;68.30;;;;;;6183353;28;89304;-70
2023/04/04 08:26:23;;;;;;;2.80;2.50;;;22.20;68.30;;;;;;6182725;28;89093;-72
2023/04/04 08:29:27;;;;;;;3.00;2.70;;;22.20;68.30;;;;;;6183678;28;88560;-71
2023/04/04 08:32:32;;;;;;;3.35;2.70;;;22.20;68.30;;;;;;6194275;28;89197;-72
2023/04/04 08:35:34;;;;;;;2.80;2.50;;;22.20;68.30;;;;;;6200122;28;89222;-71
2023/04/04 08:38:36;;;;;;;3.08;2.58;;;22.20;68.30;;;;;;6202153;28;90381;-71
2023/04/04 08:41:40;;;;;;;3.20;2.67;;;22.20;68.30;;;;;;6181879;28;89048;-72
2023/04/04 08:44:44;;;;;;;3.10;2.60;;;22.20;68.20;;;;;;6195981;28;89134;-72
2023/04/04 08:47:50;;;;;;;4.68;2.60;;;22.20;68.20;;;;;;6204976;28;89082;-71
2023/04/04 08:50:56;;;;;;;3.95;2.45;;;22.20;68.20;;;;;;6191877;28;88918;-71
2023/04/04 08:53:58;;;;;;;3.25;2.50;;;22.20;68.20;;;;;;6190466;28;89116;-71
2023/04/04 08:57:00;;;;;;;3.67;2.67;;;22.20;68.20;;;;;;6182680;28;87974;-71
2023/04/04 09:00:04;;;;;;;3.95;2.40;;;22.20;68.20;;;;;;6194734;28;88509;-71
2023/04/04 09:03:14;;;;;;;2.40;2.15;;;22.20;69.10;;;;;;6205294;28;90025;-71
2023/04/04 09:06:18;;;;;;;2.70;2.20;;;22.20;68.30;;;;;;6188113;28;88970;-71
2023/04/04 09:09:21;;;;;;;2.47;2.20;;;22.20;68.20;;;;;;6203669;28;90005;-71
2023/04/04 09:12:25;;;;;;;2.25;2.05;;;22.20;68.10;;;;;;6205174;28;88137;-71
2023/04/04 09:15:27;;;;;;;2.83;2.40;;;22.20;68.10;;;;;;6197817;28;88365;-71
2023/04/04 09:18:30;;;;;;;3.30;2.47;;;22.20;68.10;;;;;;6194185;28;87939;-71
2023/04/04 09:21:33;;;;;;;2.95;2.10;;;22.20;68.10;;;;;;6200320;28;87923;-71
2023/04/04 09:24:42;;;;;;;3.33;2.50;;;22.20;68.10;;;;;;6194855;28;87962;-72
2023/04/04 09:27:48;;;;;;;2.42;2.00;;;22.30;68.30;;;;;;6204324;28;87945;-71
2023/04/04 09:30:50;;;;;;;2.33;2.08;;;22.20;68.10;;;;;;6206590;28;88331;-71
2023/04/04 09:33:54;;;;;;;2.80;2.25;;;22.20;68.10;;;;;;6204024;28;90011;-72
2023/04/04 09:36:57;;;;;;;3.05;2.00;;;22.20;68.10;;;;;;6197131;28;89456;-72
2023/04/04 09:39:59;;;;;;;2.35;1.90;;;22.20;68.10;;;;;;6198458;28;90356;-72
2023/04/04 09:43:02;;;;;;;2.25;2.05;;;22.20;68.10;;;;;;6191319;28;89031;-71
2023/04/04 09:46:05;;;;;;;2.38;1.98;;;22.30;68.20;;;;;;6202811;28;89147;-71
2023/04/04 09:49:18;;;;;;;2.17;1.98;;;22.20;68.10;;;;;;6197226;28;89132;-71
2023/04/04 09:52:21;;;;;;;2.17;1.98;;;22.30;68.10;;;;;;6195402;28;89052;-71
2023/04/04 09:55:32;;;;;;;3.15;2.35;;;22.30;68.10;;;;;;6194809;28;88010;-71
2023/04/04 09:58:35;;;;;;;2.92;2.33;;;22.30;69.10;;;;;;6197381;28;89048;-72
2023/04/04 10:01:38;;;;;;;3.25;2.40;;;22.30;68.10;;;;;;6206256;28;88434;-71
2023/04/04 10:04:43;;;;;;;2.72;2.25;;;22.30;68.10;;;;;;6196076;28;89099;-71
2023/04/04 10:07:46;;;;;;;2.05;1.75;;;22.30;68.20;;;;;;6195225;28;90419;-71
2023/04/04 10:10:48;;;;;;;2.58;2.00;;;22.30;68.20;;;;;;6194380;28;90085;-71
2023/04/04 10:13:52;;;;;;;2.30;2.00;;;22.30;68.20;;;;;;6201574;28;89483;-71
2023/04/04 10:16:57;;;;;;;2.20;1.90;;;22.30;68.10;;;;;;6190824;28;88107;-71
2023/04/04 10:20:02;;;;;;;2.28;2.00;;;22.30;68.10;;;;;;6186097;28;89071;-72
2023/04/04 10:23:06;;;;;;;2.70;1.90;;;22.20;68.00;;;;;;6183452;28;89371;-71
2023/04/04 10:26:08;;;;;;;1.98;1.77;;;22.20;68.00;;;;;;6194971;28;88998;-71
2023/04/04 10:29:10;;;;;;;2.40;2.00;;;22.30;68.10;;;;;;6195739;28;89187;-71
2023/04/04 10:32:23;;;;;;;2.58;2.03;;;22.30;68.00;;;;;;6201813;28;90073;-71
2023/04/04 10:35:27;;;;;;;2.38;1.98;;;22.30;68.00;;;;;;6204921;28;89425;-71
2023/04/04 10:38:32;;;;;;;3.17;2.03;;;22.30;68.00;;;;;;6218488;28;89302;-71
2023/04/04 10:41:36;;;;;;;2.40;2.00;;;22.30;68.10;;;;;;6197442;28;90430;-71
2023/04/04 10:44:40;;;;;;;2.03;1.70;;;22.30;68.10;;;;;;6206911;28;88740;-70
2023/04/04 10:47:44;;;;;;;1.90;1.70;;;22.30;68.00;;;;;;6197303;28;89030;-71
2023/04/04 10:50:47;;;;;;;2.55;1.90;;;22.30;68.00;;;;;;6204708;28;89953;-70
2023/04/04 10:53:51;;;;;;;2.13;1.92;;;22.30;68.10;;;;;;6204007;28;89015;-71
2023/04/04 10:56:53;;;;;;;2.05;1.80;;;22.30;68.10;;;;;;6200084;28;89042;-71
2023/04/04 10:59:57;;;;;;;2.85;2.00;;;22.30;68.10;;;;;;6208229;28;87968;-71
2023/04/04 11:03:00;;;;;;;1.83;1.60;;;22.30;68.00;;;;;;6198315;28;88240;-72
2023/04/04 11:06:14;;;;;;;3.00;2.10;;;22.30;68.00;;;;;;6204170;28;89346;-71
2023/04/04 11:09:36;;;;;;;2.28;1.88;;;22.40;68.10;;;;;;6194798;28;89040;-71
2023/04/04 11:12:44;;;;;;;2.47;1.83;;;22.30;68.00;;;;;;6204927;28;89949;-72
2023/04/04 11:15:54;;;;;;;3.08;2.03;;;22.30;67.90;;;;;;6198429;28;87988;-71
2023/04/04 11:18:59;;;;;;;2.53;1.63;;;22.40;68.00;;;;;;6191675;28;89047;-71
2023/04/04 11:22:03;;;;;;;1.63;1.50;;;22.40;68.10;;;;;;6199351;28;89209;-72
2023/04/04 11:25:31;;;;;;;2.70;1.80;;;22.40;68.10;;;;;;6207978;28;88954;-71
2023/04/04 11:28:46;;;;;;;2.25;1.75;;;22.40;68.10;;;;;;6207468;28;89022;-71
2023/04/04 11:31:49;;;;;;;2.03;1.70;;;22.30;68.00;;;;;;6207862;28;89196;-71
2023/04/04 11:34:51;;;;;;;2.00;1.70;;;22.40;68.00;;;;;;6203158;28;88642;-71
2023/04/04 11:38:02;;;;;;;1.77;1.60;;;22.40;68.10;;;;;;6198467;28;89062;-71
2023/04/04 11:41:06;;;;;;;1.95;1.60;;;22.40;68.00;;;;;;6207844;28;88257;-71
2023/04/04 11:44:10;;;;;;;2.30;1.83;;;22.40;68.10;;;;;;6205898;28;90050;-71
2023/04/04 11:47:12;;;;;;;1.60;1.40;;;22.40;68.00;;;;;;6202337;28;89464;-71
2023/04/04 11:50:15;;;;;;;2.08;1.70;;;22.40;67.90;;;;;;6193141;28;89121;-71
2023/04/04 11:53:19;;;;;;;1.92;1.67;;;22.40;67.90;;;;;;6194801;28;89019;-70
2023/04/04 11:56:22;;;;;;;1.90;1.70;;;22.40;67.90;;;;;;6220348;28;89143;-71
2023/04/04 11:59:24;;;;;;;1.75;1.60;;;22.50;68.00;;;;;;6182684;28;89202;-71
2023/04/04 12:02:30;;;;;;;1.50;1.40;;;22.50;68.00;;;;;;6205232;28;89299;-70
2023/04/04 12:05:32;;;;;;;1.67;1.55;;;22.50;68.00;;;;;;6194003;28;88329;-71
2023/04/04 12:08:36;;;;;;;1.73;1.50;;;22.40;68.00;;;;;;6195350;28;89032;-70
2023/04/04 12:11:39;;;;;;;1.70;1.52;;;22.40;68.90;;;;;;6203181;28;89079;-71
2023/04/04 12:14:41;;;;;;;1.77;1.40;;;22.40;68.00;;;;;;6204667;28;88979;-70
2023/04/04 12:17:44;;;;;;;1.85;1.60;;;22.50;68.10;;;;;;6201775;28;87952;-70
2023/04/04 12:20:48;;;;;;;2.83;1.42;;;22.50;68.00;;;;;;6188349;28;88880;-70
2023/04/04 12:23:52;;;;;;;1.58;1.40;;;22.50;68.10;;;;;;6193388;28;88321;-70
2023/04/04 12:26:54;;;;;;;1.95;1.65;;;22.50;68.10;;;;;;6206424;28;89094;-70
2023/04/04 12:29:56;;;;;;;3.30;2.10;;;22.50;68.10;;;;;;6191442;28;87656;-70
2023/04/04 12:32:59;;;;;;;2.05;1.70;;;22.50;68.10;;;;;;6184112;28;88278;-71
2023/04/04 12:36:04;;;;;;;1.60;1.40;;;22.50;68.10;;;;;;6202102;28;89163;-70
2023/04/04 12:39:10;;;;;;;1.60;1.50;;;22.40;68.00;;;;;;6203659;28;89143;-71
2023/04/04 12:42:12;;;;;;;1.98;1.60;;;22.50;68.10;;;;;;6204238;28;89195;-70
2023/04/04 12:45:14;;;;;;;1.55;1.40;;;22.50;68.10;;;;;;6204303;28;90050;-70
2023/04/04 12:48:17;;;;;;;1.77;1.48;;;22.50;68.10;;;;;;6196141;28;89138;-70
2023/04/04 12:51:19;;;;;;;1.52;1.35;;;22.50;68.00;;;;;;6193245;28;88054;-70
2023/04/04 12:54:27;;;;;;;1.80;1.60;;;22.50;68.90;;;;;;6193201;28;89002;-71
2023/04/04 12:57:30;;;;;;;1.65;1.38;;;22.50;67.90;;;;;;6197936;28;89021;-70
2023/04/04 13:00:32;;;;;;;2.10;1.63;;;22.50;67.90;;;;;;6195171;28;88477;-70
2023/04/04 13:03:36;;;;;;;1.80;1.60;;;22.50;67.90;;;;;;6194896;28;88024;-70
2023/04/04 13:06:39;;;;;;;1.70;1.42;;;22.50;67.90;;;;;;6196571;28;88662;-71
2023/04/04 13:09:53;;;;;;;2.70;1.90;;;22.50;67.90;;;;;;6203062;28;89480;-71
2023/04/04 13:13:00;;;;;;;1.85;1.50;;;22.50;67.90;;;;;;6203583;28;89038;-71
2023/04/04 13:16:03;;;;;;;1.70;1.45;;;22.50;67.90;;;;;;6193708;28;90141;-71
2023/04/04 13:19:05;;;;;;;1.65;1.48;;;22.50;67.90;;;;;;6199290;28;89546;-70
2023/04/04 13:22:09;;;;;;;1.88;1.50;;;22.50;67.90;;;;;;6186147;28;89357;-71
2023/04/04 13:25:13;;;;;;;1.60;1.35;;;22.50;67.90;;;;;;6194714;28;89206;-70
2023/04/04 13:28:15;;;;;;;1.50;1.40;;;22.50;67.90;;;;;;6190634;28;89029;-70
2023/04/04 13:31:17;;;;;;;1.58;1.45;;;22.50;67.90;;;;;;6203415;28;89082;-71
2023/04/04 13:34:20;;;;;;;1.85;1.50;;;22.50;68.00;;;;;;6198545;28;89383;-71
2023/04/04 13:37:23;;;;;;;1.67;1.45;;;22.50;68.10;;;;;;6198179;28;88288;-71
2023/04/04 13:40:27;;;;;;;1.92;1.60;;;22.50;67.90;;;;;;6193217;28;89691;-71
2023/04/04 13:43:29;;;;;;;1.42;1.30;;;22.50;68.00;;;;;;6195041;28;89378;-70
2023/04/04 13:46:31;;;;;;;1.80;1.60;;;22.50;68.10;;;;;;6197669;28;90320;-71
2023/04/04 13:49:33;;;;;;;1.73;1.42;;;22.40;68.10;;;;;;6203078;28;89059;-70
2023/04/04 13:52:35;;;;;;;1.63;1.50;;;22.40;68.10;;;;;;6195316;28;89049;-70
2023/04/04 13:55:39;;;;;;;2.05;1.60;;;22.40;68.10;;;;;;6212586;28;88933;-71
2023/04/04 13:58:41;;;;;;;2.10;1.67;;;22.40;68.20;;;;;;6206299;28;89389;-71
2023/04/04 14:01:43;;;;;;;1.75;1.63;;;22.40;68.10;;;;;;6186549;28;89115;-71
2023/04/04 14:04:45;;;;;;;1.55;1.30;;;22.40;68.10;;;;;;6204085;28;89080;-72
2023/04/04 14:07:47;;;;;;;2.33;1.75;;;22.40;68.10;;;;;;6209491;28;88424;-71
2023/04/04 14:10:50;;;;;;;1.90;1.58;;;22.30;68.10;;;;;;6202537;28;89069;-71
2023/04/04 14:13:52;;;;;;;1.73;1.35;;;22.30;68.10;;;;;;6198275;28;89045;-71
2023/04/04 14:16:55;;;;;;;1.67;1.48;;;22.40;68.20;;;;;;6193835;28;90014;-71
2023/04/04 14:19:57;;;;;;;1.50;1.40;;;22.30;68.10;;;;;;6196532;28;90170;-71
2023/04/04 14:22:59;;;;;;;1.40;1.30;;;22.30;68.10;;;;;;6208260;28;89375;-71
2023/04/04 14:26:03;;;;;;;1.55;1.45;;;22.40;68.30;;;;;;6187077;28;89072;-71
2023/04/04 14:29:05;;;;;;;1.50;1.30;;;22.30;68.20;;;;;;6217943;28;89098;-70
2023/04/04 14:32:06;;;;;;;1.83;1.52;;;22.30;68.10;;;;;;6194553;28;89126;-72
2023/04/04 14:35:09;;;;;;;1.85;1.52;;;22.40;68.20;;;;;;6203615;28;89144;-71
2023/04/04 14:38:11;;;;;;;2.00;1.40;;;22.30;68.10;;;;;;6185570;28;88571;-71
2023/04/04 14:41:15;;;;;;;1.77;1.40;;;22.40;68.20;;;;;;6194003;28;89009;-71
2023/04/04 14:44:19;;;;;;;1.60;1.33;;;22.40;68.10;;;;;;6199875;28;89651;-71
2023/04/04 14:47:21;;;;;;;1.45;1.35;;;22.40;68.10;;;;;;6201386;28;90077;-72
2023/04/04 14:50:23;;;;;;;1.42;1.33;;;22.40;68.00;;;;;;6207752;28;89353;-71
2023/04/04 14:53:25;;;;;;;2.78;1.83;;;22.40;68.10;;;;;;6207684;28;89010;-71
2023/04/04 14:56:29;;;;;;;1.50;1.40;;;22.40;68.00;;;;;;6196395;28;89479;-71
2023/04/04 14:59:31;;;;;;;1.42;1.30;;;22.40;68.00;;;;;;6184825;28;87894;-71
2023/04/04 15:02:33;;;;;;;1.77;1.40;;;22.40;68.10;;;;;;6195355;28;89344;-71
2023/04/04 15:05:35;;;;;;;1.80;1.35;;;22.40;68.00;;;;;;6207735;28;89395;-71
2023/04/04 15:08:37;;;;;;;1.90;1.40;;;22.40;67.90;;;;;;6184699;28;88461;-70
2023/04/04 15:11:41;;;;;;;1.83;1.50;;;22.40;68.00;;;;;;6206451;28;87985;-71
2023/04/04 15:14:43;;;;;;;1.60;1.40;;;22.40;68.00;;;;;;6200903;28;89390;-71
2023/04/04 15:17:45;;;;;;;1.75;1.40;;;22.40;67.90;;;;;;6200338;28;90055;-70
2023/04/04 15:20:47;;;;;;;1.50;1.40;;;22.50;67.90;;;;;;6193451;28;89062;-71
2023/04/04 15:23:49;;;;;;;1.30;1.20;;;22.50;67.90;;;;;;6207617;28;88966;-71
2023/04/04 15:26:52;;;;;;;1.50;1.40;;;22.50;67.90;;;;;;6207737;28;88009;-71
2023/04/04 15:29:54;;;;;;;3.72;2.13;;;22.40;67.80;;;;;;6205716;28;89400;-70
2023/04/04 15:32:57;;;;;;;1.95;1.58;;;22.40;67.90;;;;;;6207303;28;87868;-71
2023/04/04 15:35:59;;;;;;;1.50;1.30;;;22.50;67.90;;;;;;6207611;28;89379;-70
2023/04/04 15:39:01;;;;;;;1.60;1.50;;;22.50;67.90;;;;;;6188843;28;88370;-71
2023/04/04 15:42:04;;;;;;;2.38;1.80;;;22.50;67.90;;;;;;6196468;28;89430;-70
2023/04/04 15:45:07;;;;;;;1.30;1.20;;;22.50;67.90;;;;;;6207024;28;88983;-70
2023/04/04 15:48:10;;;;;;;1.33;1.23;;;22.50;67.90;;;;;;6205919;28;89871;-71
2023/04/04 15:51:12;;;;;;;1.30;1.20;;;22.50;67.90;;;;;;6206261;28;89085;-70